Metar z pełnej godziny Komunikat METAR ze strony awiacja.imgw.pl Metar G00 EPWA METAR EPWA 241900Z 28004KT CAVOK 16/11 Q1011 NOSIG=